Time;durP1;ratioP1;P1;durP2;ratioP2;P2;SDS_P1;SDS_P2;PMS_P1;PMS_P2;Temp;Humidity;BMP_temperature;BMP_pressure;BME280_temperature;BME280_humidity;BME280_pressure;Samples;Min_cycle;Max_cycle;Signal;HPM_P1;HPM_P2
2022/01/12 00:00:48;;;;;;;2.65;2.10;;;21.50;31.80;;;;;;5073240;28;20392;-63
2022/01/12 00:03:14;;;;;;;3.13;2.03;;;21.50;31.80;;;;;;5073082;28;20380;-63
2022/01/12 00:05:40;;;;;;;2.40;2.00;;;21.40;31.70;;;;;;5073178;28;20474;-65
2022/01/12 00:08:07;;;;;;;2.67;2.00;;;21.40;31.70;;;;;;5072969;28;20390;-63
2022/01/12 00:10:33;;;;;;;2.55;2.10;;;21.40;31.70;;;;;;5055009;28;20482;-63
2022/01/12 00:12:59;;;;;;;2.30;1.90;;;21.40;31.70;;;;;;5073059;28;20463;-63
2022/01/12 00:15:24;;;;;;;2.93;1.90;;;21.40;31.80;;;;;;5072652;28;20392;-63
2022/01/12 00:17:50;;;;;;;2.55;1.98;;;21.40;31.70;;;;;;5072782;28;20434;-63
2022/01/12 00:20:16;;;;;;;2.03;1.80;;;21.40;31.70;;;;;;5072690;28;20384;-63
2022/01/12 00:22:42;;;;;;;2.13;1.80;;;21.40;31.70;;;;;;5072410;28;20403;-64
2022/01/12 00:33:16;;;;;;;2.20;1.88;;;21.40;31.70;;;;;;5072951;28;20386;-63
2022/01/12 00:35:47;;;;;;;2.30;1.90;;;21.40;31.70;;;;;;5072456;28;20396;-63
2022/01/12 00:38:14;;;;;;;2.70;1.80;;;21.30;31.70;;;;;;5072580;28;20477;-63
2022/01/12 00:40:47;;;;;;;2.20;1.80;;;21.40;31.70;;;;;;5072412;28;20391;-63
2022/01/12 00:43:13;;;;;;;2.28;2.08;;;21.40;31.60;;;;;;5072446;28;20395;-63
2022/01/12 00:45:44;;;;;;;2.20;1.90;;;21.40;31.60;;;;;;5071829;28;20753;-63
2022/01/12 00:48:10;;;;;;;2.78;2.08;;;21.30;31.50;;;;;;5072148;28;20507;-68
2022/01/12 00:50:37;;;;;;;2.25;1.83;;;21.30;31.50;;;;;;5072310;28;20808;-63
2022/01/12 00:53:06;;;;;;;2.40;1.80;;;21.30;31.50;;;;;;5072210;28;20388;-63
2022/01/12 00:55:33;;;;;;;2.35;1.90;;;21.30;31.50;;;;;;5072065;28;20384;-63
2022/01/12 00:57:58;;;;;;;2.13;1.80;;;21.30;31.50;;;;;;5072131;28;20476;-63
2022/01/12 01:00:27;;;;;;;2.28;1.80;;;21.30;31.50;;;;;;5072160;28;20776;-63
2022/01/12 01:02:54;;;;;;;2.33;2.00;;;21.30;31.50;;;;;;5054112;28;20502;-67
2022/01/12 01:05:22;;;;;;;3.00;2.00;;;21.30;31.50;;;;;;5071952;28;20430;-63
2022/01/12 01:07:49;;;;;;;2.67;2.10;;;21.30;31.60;;;;;;5071755;28;20395;-63
2022/01/12 01:10:26;;;;;;;2.83;2.20;;;21.20;31.40;;;;;;5072007;28;20864;-63
2022/01/12 01:12:52;;;;;;;2.90;2.20;;;21.20;31.50;;;;;;5071937;28;20395;-69
2022/01/12 01:15:27;;;;;;;2.63;2.03;;;21.20;31.50;;;;;;5071802;28;20438;-63
2022/01/12 01:26:05;;;;;;;2.60;2.05;;;21.20;31.40;;;;;;5071955;28;20721;-62
2022/01/12 01:28:30;;;;;;;2.77;1.93;;;21.20;31.40;;;;;;5071845;28;20388;-64
2022/01/12 01:30:56;;;;;;;3.42;2.17;;;21.20;31.40;;;;;;5071689;28;20787;-63
2022/01/12 01:33:22;;;;;;;2.77;2.10;;;21.20;31.40;;;;;;5071855;28;20390;-69
2022/01/12 01:35:54;;;;;;;2.25;2.00;;;21.20;31.40;;;;;;5053821;28;20853;-66
2022/01/12 01:38:19;;;;;;;2.60;2.13;;;21.20;31.40;;;;;;5071800;28;20773;-63
2022/01/12 01:40:46;;;;;;;2.50;2.10;;;21.20;31.40;;;;;;5071868;28;20379;-69
2022/01/12 01:43:25;;;;;;;2.93;2.10;;;21.20;31.40;;;;;;5087313;28;21106;-63
2022/01/12 01:54:04;;;;;;;2.13;1.85;;;21.10;31.40;;;;;;5071234;28;20395;-65
2022/01/12 01:56:31;;;;;;;2.63;2.00;;;21.20;31.40;;;;;;5071098;28;20412;-63
2022/01/12 01:58:57;;;;;;;3.22;2.08;;;21.10;31.40;;;;;;5073782;28;20428;-63
2022/01/12 02:01:23;;;;;;;2.55;2.10;;;21.10;31.40;;;;;;5075557;28;20391;-63
2022/01/12 02:03:49;;;;;;;2.45;2.00;;;21.10;31.40;;;;;;5057589;28;20869;-65
2022/01/12 02:06:16;;;;;;;2.50;2.10;;;21.10;31.30;;;;;;5075263;28;20402;-64
2022/01/12 02:08:42;;;;;;;2.58;2.00;;;21.10;31.40;;;;;;5075206;28;20411;-66
2022/01/12 02:11:08;;;;;;;2.40;1.92;;;21.10;31.30;;;;;;5075447;28;20462;-63
2022/01/12 02:13:34;;;;;;;2.60;2.10;;;21.10;31.30;;;;;;5075301;28;20383;-64
2022/01/12 02:16:00;;;;;;;2.60;2.10;;;21.10;31.30;;;;;;5075203;28;20391;-64
2022/01/12 02:40:29;;;;;;;2.75;2.00;;;21.00;31.20;;;;;;5074765;28;20387;-66
2022/01/12 02:53:43;;;;;;;2.23;1.90;;;20.90;31.10;;;;;;4993120;28;20538;-64
2022/01/12 02:56:29;;;;;;;2.10;1.80;;;20.90;31.10;;;;;;5033421;28;20441;-66
2022/01/12 02:58:58;;;;;;;2.20;1.88;;;20.90;31.10;;;;;;5074609;28;20395;-71
2022/01/12 03:04:00;;;;;;;2.20;1.90;;;20.90;31.20;;;;;;5074570;28;20817;-65
2022/01/12 03:06:30;;;;;;;2.38;1.90;;;20.90;31.20;;;;;;5074304;28;20375;-65
2022/01/12 03:08:56;;;;;;;2.47;2.00;;;20.90;31.10;;;;;;5073593;28;20426;-65
2022/01/12 03:11:24;;;;;;;2.42;1.73;;;20.90;31.20;;;;;;5073585;28;20384;-70
2022/01/12 03:13:51;;;;;;;2.05;1.85;;;20.90;31.20;;;;;;5074220;28;20388;-68
2022/01/12 03:16:20;;;;;;;2.80;1.90;;;20.90;31.20;;;;;;5074160;28;20380;-69
2022/01/12 03:18:51;;;;;;;2.20;1.90;;;20.90;31.20;;;;;;5074192;28;20395;-64
2022/01/12 03:21:20;;;;;;;2.03;1.67;;;20.90;31.20;;;;;;5073940;28;20395;-68
2022/01/12 03:23:46;;;;;;;2.13;1.63;;;20.90;31.20;;;;;;5074153;28;20395;-65
2022/01/12 03:26:12;;;;;;;2.30;1.80;;;20.90;31.20;;;;;;5073932;28;20384;-64
2022/01/12 03:28:40;;;;;;;2.43;1.87;;;20.90;31.20;;;;;;5073782;28;20418;-64
2022/01/12 03:31:13;;;;;;;2.72;1.83;;;20.90;31.20;;;;;;5073788;28;20441;-64
2022/01/12 03:38:49;;;;;;;2.08;1.70;;;20.90;31.20;;;;;;5073663;28;20468;-64
2022/01/12 03:41:16;;;;;;;2.15;1.70;;;20.80;31.00;;;;;;5073541;28;20451;-64
2022/01/12 03:43:41;;;;;;;2.58;1.73;;;20.90;31.10;;;;;;5073718;28;20429;-64
2022/01/12 03:46:07;;;;;;;2.35;1.70;;;20.80;31.00;;;;;;5073485;28;20388;-65
2022/01/12 03:48:32;;;;;;;2.27;1.70;;;20.80;31.10;;;;;;5073446;28;20402;-70
2022/01/12 03:50:58;;;;;;;2.28;1.77;;;20.80;31.00;;;;;;5073343;28;20394;-64
2022/01/12 03:53:24;;;;;;;1.97;1.70;;;20.80;31.00;;;;;;5073365;28;20388;-68
2022/01/12 03:55:50;;;;;;;1.90;1.70;;;20.80;31.00;;;;;;5073416;28;20388;-65
2022/01/12 03:58:16;;;;;;;2.72;1.65;;;20.80;31.00;;;;;;5073267;28;20482;-66
2022/01/12 04:00:41;;;;;;;2.40;1.80;;;20.80;31.00;;;;;;5073352;28;21086;-71
2022/01/12 04:03:08;;;;;;;2.20;1.90;;;20.80;31.00;;;;;;5055315;28;20395;-67
2022/01/12 04:08:25;;;;;;;2.30;1.70;;;20.80;30.80;;;;;;5073368;28;20394;-64
2022/01/12 04:10:53;;;;;;;2.83;1.90;;;20.80;30.90;;;;;;5073209;28;20496;-71
2022/01/12 04:13:25;;;;;;;2.67;2.05;;;20.90;30.80;;;;;;5073110;28;20398;-67
2022/01/12 04:15:59;;;;;;;4.53;2.10;;;21.00;31.40;;;;;;5073020;28;20439;-71
2022/01/12 04:18:24;;;;;;;4.15;2.40;;;21.00;32.10;;;;;;5072856;28;20406;-64
2022/01/12 04:20:51;;;;;;;8.10;2.10;;;21.00;32.30;;;;;;5071855;28;20380;-65
2022/01/12 04:23:19;;;;;;;8.25;2.08;;;21.00;32.70;;;;;;5072467;28;20395;-68
2022/01/12 04:25:48;;;;;;;5.53;2.30;;;21.10;33.90;;;;;;5072964;28;20413;-65
2022/01/12 04:28:15;;;;;;;3.40;1.90;;;21.10;33.70;;;;;;5073065;28;20438;-65
2022/01/12 04:30:41;;;;;;;4.25;1.80;;;21.10;33.40;;;;;;5072143;28;20384;-64
2022/01/12 04:33:06;;;;;;;5.05;1.77;;;21.10;33.10;;;;;;5072724;28;20388;-65
2022/01/12 04:35:36;;;;;;;3.77;1.90;;;21.10;33.00;;;;;;5072455;28;20807;-72
2022/01/12 04:38:03;;;;;;;2.50;1.90;;;21.10;32.80;;;;;;5072573;28;20458;-71
2022/01/12 04:40:29;;;;;;;2.70;1.80;;;21.10;33.30;;;;;;5073248;28;20455;-65
2022/01/12 04:42:55;;;;;;;5.10;1.70;;;21.20;32.50;;;;;;5072442;28;20414;-64
2022/01/12 04:50:23;;;;;;;4.20;1.63;;;21.20;32.80;;;;;;5072311;28;20380;-64
2022/01/12 04:52:49;;;;;;;4.07;1.73;;;21.20;32.70;;;;;;5072125;28;20391;-65
2022/01/12 04:55:14;;;;;;;5.05;2.30;;;21.20;32.50;;;;;;5072168;28;20383;-65
2022/01/12 04:57:40;;;;;;;6.53;1.73;;;21.20;33.00;;;;;;5071613;28;20419;-68
2022/01/12 05:00:15;;;;;;;8.02;1.75;;;21.20;32.90;;;;;;5071920;28;20399;-67
2022/01/12 05:13:28;;;;;;;4.55;1.80;;;21.10;32.50;;;;;;5072369;28;20415;-67
2022/01/12 05:15:54;;;;;;;2.80;1.55;;;21.00;32.30;;;;;;5072048;28;20435;-67
2022/01/12 05:18:20;;;;;;;3.70;1.80;;;21.00;32.90;;;;;;5071804;28;20423;-64
2022/01/12 05:20:46;;;;;;;3.75;1.75;;;20.90;32.80;;;;;;5071912;28;20745;-67
2022/01/12 05:23:13;;;;;;;2.17;1.60;;;21.00;32.70;;;;;;5071687;28;20399;-67
2022/01/12 05:25:39;;;;;;;4.00;1.67;;;21.00;32.60;;;;;;5071737;28;20404;-68
2022/01/12 05:28:05;;;;;;;2.92;1.60;;;21.00;32.60;;;;;;5071765;28;20903;-64
2022/01/12 05:30:32;;;;;;;2.30;1.53;;;21.00;32.60;;;;;;5071737;28;20388;-64
2022/01/12 05:32:59;;;;;;;3.30;1.67;;;21.00;32.60;;;;;;5071744;28;20461;-64
2022/01/12 05:35:30;;;;;;;3.33;1.58;;;21.00;32.30;;;;;;5071861;28;20391;-64
2022/01/12 05:37:57;;;;;;;5.60;1.73;;;21.00;32.40;;;;;;5071859;28;20454;-64
2022/01/12 05:40:23;;;;;;;4.35;2.00;;;21.00;32.70;;;;;;5071724;28;20384;-64
2022/01/12 05:42:50;;;;;;;5.97;1.80;;;21.00;32.90;;;;;;5071833;28;20610;-64
2022/01/12 05:45:18;;;;;;;4.55;1.70;;;20.90;33.00;;;;;;5071670;28;20388;-64
2022/01/12 05:50:11;;;;;;;5.68;1.95;;;20.90;32.80;;;;;;5071619;28;20816;-64
2022/01/12 05:52:37;;;;;;;4.97;1.90;;;20.90;32.70;;;;;;5077206;28;20425;-62
2022/01/12 05:55:04;;;;;;;4.93;2.00;;;20.90;33.50;;;;;;5090372;28;20386;-63
2022/01/12 05:57:31;;;;;;;4.10;1.80;;;20.90;33.80;;;;;;5090715;28;20414;-64
2022/01/12 05:59:58;;;;;;;6.30;2.10;;;21.00;34.30;;;;;;5091319;28;20481;-64
2022/01/12 06:02:24;;;;;;;6.30;2.13;;;21.10;34.50;;;;;;5091078;28;20386;-69
2022/01/12 06:04:50;;;;;;;4.88;2.20;;;21.10;33.80;;;;;;5090765;28;20950;-64
2022/01/12 06:07:15;;;;;;;3.90;2.10;;;21.20;34.40;;;;;;5090316;28;20469;-63
2022/01/12 06:09:41;;;;;;;5.35;2.10;;;21.20;34.60;;;;;;5090369;28;20743;-64
2022/01/12 06:12:07;;;;;;;4.82;2.20;;;21.20;34.90;;;;;;5090642;28;20759;-64
2022/01/12 06:14:33;;;;;;;4.03;2.10;;;21.20;34.50;;;;;;5090218;28;20940;-64
2022/01/12 06:16:59;;;;;;;3.88;2.08;;;21.20;34.50;;;;;;5090535;28;20406;-63
2022/01/12 06:19:24;;;;;;;5.40;2.30;;;21.20;34.30;;;;;;5091623;28;20386;-64
2022/01/12 06:21:50;;;;;;;3.35;2.22;;;21.20;34.40;;;;;;5091701;28;20886;-64
2022/01/12 06:24:16;;;;;;;3.00;2.20;;;21.20;34.50;;;;;;5091569;28;20543;-64
2022/01/12 06:26:43;;;;;;;3.67;2.00;;;21.20;34.30;;;;;;5091486;28;20394;-64
2022/01/12 06:31:36;;;;;;;3.75;1.90;;;21.30;33.90;;;;;;5091610;28;20401;-64
2022/01/12 06:34:02;;;;;;;4.32;2.10;;;21.20;33.90;;;;;;5090339;28;20870;-64
2022/01/12 06:36:27;;;;;;;3.50;2.03;;;21.20;33.70;;;;;;5072898;28;20493;-64
2022/01/12 06:38:53;;;;;;;3.92;2.10;;;21.20;33.60;;;;;;5090272;28;20501;-64
2022/01/12 06:41:20;;;;;;;3.20;2.10;;;21.10;33.50;;;;;;5091339;28;20374;-64
2022/01/12 06:43:45;;;;;;;4.37;2.10;;;21.10;33.70;;;;;;5090888;28;20508;-65
2022/01/12 06:46:14;;;;;;;3.15;1.90;;;21.10;33.70;;;;;;5094511;28;20467;-63
2022/01/12 06:48:40;;;;;;;3.30;2.05;;;21.10;33.70;;;;;;5094592;28;20394;-64
2022/01/12 06:51:06;;;;;;;2.83;1.80;;;21.10;33.40;;;;;;5094547;28;20386;-71
2022/01/12 06:53:33;;;;;;;3.50;2.17;;;21.10;33.30;;;;;;5094689;28;20402;-70
2022/01/12 06:55:58;;;;;;;2.53;2.00;;;21.00;33.10;;;;;;5094234;28;20382;-70
2022/01/12 06:58:25;;;;;;;3.53;1.90;;;21.00;33.00;;;;;;5094186;28;20544;-70
2022/01/12 07:00:50;;;;;;;2.70;2.00;;;21.00;32.80;;;;;;5076389;28;20392;-72
2022/01/12 07:03:16;;;;;;;4.30;2.20;;;21.00;32.70;;;;;;5094634;28;20822;-72
2022/01/12 07:05:42;;;;;;;3.20;2.08;;;20.90;32.60;;;;;;5094145;28;20397;-65
2022/01/12 07:08:08;;;;;;;2.30;1.73;;;21.00;32.50;;;;;;5094440;28;20394;-63
2022/01/12 07:10:34;;;;;;;2.42;2.03;;;21.00;32.40;;;;;;5094141;28;20465;-70
2022/01/12 07:12:59;;;;;;;2.45;1.70;;;20.90;32.30;;;;;;5094233;28;20450;-63
2022/01/12 07:15:25;;;;;;;2.57;1.80;;;20.90;32.30;;;;;;5094152;28;20393;-63
2022/01/12 07:17:50;;;;;;;2.75;1.98;;;20.90;32.20;;;;;;5075975;28;20414;-64
2022/01/12 07:20:16;;;;;;;3.17;1.90;;;20.90;32.10;;;;;;5094069;28;20385;-63
2022/01/12 07:22:42;;;;;;;2.50;1.83;;;20.90;32.10;;;;;;5094042;28;20389;-72
2022/01/12 07:25:08;;;;;;;4.28;2.30;;;20.90;32.00;;;;;;5093993;28;20385;-63
2022/01/12 07:27:34;;;;;;;2.55;1.98;;;20.90;31.90;;;;;;5093776;28;20389;-63
2022/01/12 07:30:00;;;;;;;2.63;1.90;;;20.90;31.90;;;;;;5093923;28;20386;-63
2022/01/12 07:32:29;;;;;;;3.60;1.88;;;20.90;31.80;;;;;;5075648;28;20401;-64
2022/01/12 07:34:55;;;;;;;2.50;2.08;;;20.90;31.80;;;;;;5093803;28;20374;-66
2022/01/12 07:37:22;;;;;;;2.72;2.05;;;20.90;31.80;;;;;;5093560;28;20406;-63
2022/01/12 07:39:48;;;;;;;3.50;2.10;;;20.90;31.70;;;;;;5093234;28;20370;-63
2022/01/12 07:42:14;;;;;;;3.22;2.00;;;20.90;31.70;;;;;;5093817;28;20418;-65
2022/01/12 07:44:40;;;;;;;3.10;2.03;;;20.90;31.70;;;;;;5093617;28;20417;-70
2022/01/12 07:47:05;;;;;;;2.65;1.80;;;20.90;31.60;;;;;;5093522;28;20954;-70
2022/01/12 07:49:33;;;;;;;2.43;2.00;;;20.90;31.60;;;;;;5093183;28;20477;-66
2022/01/12 07:52:00;;;;;;;2.60;2.00;;;20.90;31.60;;;;;;5093293;28;20429;-65
2022/01/12 07:54:25;;;;;;;2.77;2.10;;;20.90;31.60;;;;;;5093342;28;20436;-69
2022/01/12 07:56:51;;;;;;;2.65;2.20;;;20.90;31.60;;;;;;5093006;28;20798;-70
2022/01/12 07:59:17;;;;;;;2.65;2.17;;;20.90;31.50;;;;;;5093383;28;20394;-68
2022/01/12 08:01:43;;;;;;;3.90;2.27;;;20.90;31.50;;;;;;5093275;28;20374;-68
2022/01/12 08:04:08;;;;;;;2.45;2.03;;;20.90;31.40;;;;;;5093338;28;20390;-66
2022/01/12 08:06:34;;;;;;;2.47;2.20;;;20.90;31.40;;;;;;5092868;28;20918;-66
2022/01/12 08:09:00;;;;;;;3.00;2.10;;;20.80;31.40;;;;;;5093055;28;20756;-70
2022/01/12 08:11:25;;;;;;;2.57;2.20;;;20.90;31.30;;;;;;5092631;28;20491;-71
2022/01/12 08:13:52;;;;;;;3.50;2.50;;;20.80;31.50;;;;;;5092811;28;20386;-70
2022/01/12 08:16:18;;;;;;;3.20;2.42;;;20.80;31.60;;;;;;5093072;28;20424;-70
2022/01/12 08:18:44;;;;;;;2.87;2.20;;;20.80;31.70;;;;;;5092692;28;20422;-70
2022/01/12 08:21:09;;;;;;;3.15;2.40;;;20.80;31.70;;;;;;5092796;28;20378;-70
2022/01/12 08:23:35;;;;;;;2.60;2.20;;;20.80;31.60;;;;;;5092573;28;20394;-71
2022/01/12 08:26:01;;;;;;;2.50;2.30;;;20.80;31.50;;;;;;5074684;28;20390;-70
2022/01/12 08:28:28;;;;;;;3.70;2.40;;;20.80;31.60;;;;;;5093016;28;20398;-71
2022/01/12 08:30:53;;;;;;;2.72;2.33;;;20.80;31.40;;;;;;5092672;28;20397;-71
2022/01/12 08:33:19;;;;;;;2.55;2.35;;;20.70;31.40;;;;;;5092517;28;20378;-71
2022/01/12 08:35:45;;;;;;;2.50;2.30;;;20.70;31.40;;;;;;5092606;28;20389;-71
2022/01/12 08:38:10;;;;;;;2.78;2.13;;;20.70;31.40;;;;;;5092526;28;20421;-71
2022/01/12 08:40:38;;;;;;;2.63;2.27;;;20.70;31.40;;;;;;5092538;28;20516;-71
2022/01/12 08:43:04;;;;;;;2.83;2.30;;;20.70;31.30;;;;;;5092669;28;20883;-71
2022/01/12 08:45:31;;;;;;;2.78;2.25;;;20.70;31.40;;;;;;5074062;28;20394;-72
2022/01/12 08:47:57;;;;;;;2.83;2.23;;;20.80;31.40;;;;;;5092291;28;20512;-72
2022/01/12 08:50:23;;;;;;;2.80;2.50;;;20.70;31.30;;;;;;5092334;28;20799;-72
2022/01/12 08:52:49;;;;;;;3.67;2.40;;;20.80;31.30;;;;;;5074270;28;20493;-72
2022/01/12 08:55:19;;;;;;;2.60;2.30;;;20.80;31.30;;;;;;5074085;28;20478;-71
2022/01/12 08:57:45;;;;;;;2.90;2.60;;;20.80;31.30;;;;;;5073987;28;20418;-71
2022/01/12 09:00:11;;;;;;;2.45;2.22;;;20.80;31.20;;;;;;5092201;28;20712;-65
2022/01/12 09:02:38;;;;;;;2.80;2.50;;;20.90;31.20;;;;;;5074028;28;20394;-69
2022/01/12 09:05:04;;;;;;;2.80;2.50;;;20.90;31.20;;;;;;5092074;28;20390;-68
2022/01/12 09:07:30;;;;;;;3.38;2.50;;;21.00;31.20;;;;;;5091626;28;20509;-70
2022/01/12 09:09:56;;;;;;;2.72;2.45;;;21.00;31.00;;;;;;5092002;28;20942;-68
2022/01/12 09:12:21;;;;;;;2.90;2.60;;;21.10;31.60;;;;;;5091679;28;20393;-68
2022/01/12 09:14:48;;;;;;;2.90;2.40;;;21.20;31.00;;;;;;5091953;28;20381;-70
2022/01/12 09:17:17;;;;;;;2.80;2.40;;;21.20;30.90;;;;;;5073655;28;20428;-67
2022/01/12 09:19:43;;;;;;;2.92;2.10;;;21.20;30.90;;;;;;5091890;28;20390;-70
2022/01/12 09:22:09;;;;;;;2.80;2.20;;;21.20;31.00;;;;;;5073745;28;20386;-64
2022/01/12 09:24:35;;;;;;;2.55;2.30;;;21.20;31.00;;;;;;5091735;28;20382;-69
2022/01/12 09:27:01;;;;;;;2.40;2.20;;;21.20;30.80;;;;;;5091870;28;20524;-69
2022/01/12 09:29:26;;;;;;;2.40;2.20;;;21.30;31.10;;;;;;5073255;28;20875;-69
2022/01/12 09:31:52;;;;;;;2.37;2.07;;;21.30;31.10;;;;;;5091648;28;20389;-63
2022/01/12 09:34:18;;;;;;;2.22;2.03;;;21.30;31.00;;;;;;5091567;28;20765;-70
2022/01/12 09:36:43;;;;;;;3.70;2.33;;;21.30;31.00;;;;;;5091760;28;20420;-64
2022/01/12 09:39:10;;;;;;;2.22;2.00;;;21.30;30.90;;;;;;5091176;28;20392;-63
2022/01/12 09:41:36;;;;;;;2.40;2.20;;;21.30;31.00;;;;;;5091579;28;20481;-70
2022/01/12 09:44:02;;;;;;;2.35;2.15;;;21.30;30.90;;;;;;5091570;28;20374;-67
2022/01/12 09:46:28;;;;;;;2.80;2.20;;;21.30;30.90;;;;;;5091210;28;20408;-62
2022/01/12 09:48:55;;;;;;;2.40;2.10;;;21.30;30.80;;;;;;5091563;28;20385;-71
2022/01/12 09:51:22;;;;;;;2.15;1.83;;;21.30;30.80;;;;;;5091376;28;20378;-70
2022/01/12 09:53:49;;;;;;;2.40;2.10;;;21.30;30.70;;;;;;5091129;28;20435;-65
2022/01/12 09:56:24;;;;;;;2.50;2.30;;;21.40;30.80;;;;;;5091135;28;20405;-64
2022/01/12 09:58:53;;;;;;;2.30;2.10;;;21.40;30.50;;;;;;5091332;28;20382;-64
2022/01/12 10:01:27;;;;;;;3.30;2.20;;;21.40;30.40;;;;;;5091540;28;20431;-64
2022/01/12 10:04:03;;;;;;;2.90;2.17;;;21.40;30.40;;;;;;5091172;28;20398;-64
2022/01/12 10:06:35;;;;;;;2.77;2.30;;;21.40;30.50;;;;;;5091126;28;20609;-65
2022/01/12 10:09:01;;;;;;;2.40;2.20;;;21.40;30.50;;;;;;5091180;28;20386;-64
2022/01/12 10:11:26;;;;;;;2.47;2.17;;;21.30;30.50;;;;;;5091057;28;20901;-65
2022/01/12 10:14:00;;;;;;;2.92;2.20;;;21.30;30.50;;;;;;5090634;28;20398;-65
2022/01/12 10:16:26;;;;;;;2.80;2.20;;;21.30;30.60;;;;;;5089532;28;20393;-67
2022/01/12 10:18:54;;;;;;;3.22;2.33;;;21.40;30.70;;;;;;5090318;28;20476;-63
2022/01/12 10:21:28;;;;;;;2.90;2.50;;;21.50;31.00;;;;;;5093917;28;20378;-64
2022/01/12 10:24:06;;;;;;;3.55;2.80;;;21.60;31.00;;;;;;5094007;28;20385;-64
2022/01/12 10:26:39;;;;;;;4.28;3.10;;;21.60;31.50;;;;;;5094150;28;20374;-63
2022/01/12 10:29:28;;;;;;;4.17;2.90;;;21.70;31.60;;;;;;5094260;28;20439;-63
2022/01/12 10:31:56;;;;;;;4.32;2.70;;;21.70;31.60;;;;;;5094111;28;20393;-64
2022/01/12 10:34:34;;;;;;;5.15;2.75;;;21.70;31.80;;;;;;5092712;28;20382;-63
2022/01/12 10:37:00;;;;;;;3.45;2.70;;;21.70;31.70;;;;;;5094981;28;20415;-64
2022/01/12 10:39:27;;;;;;;3.00;2.70;;;21.70;31.60;;;;;;5094964;28;20442;-64
2022/01/12 10:42:00;;;;;;;3.20;2.70;;;21.70;31.40;;;;;;5095131;28;20394;-62
2022/01/12 10:44:51;;;;;;;3.30;2.70;;;21.70;31.20;;;;;;5094766;28;20785;-63
2022/01/12 10:47:29;;;;;;;3.28;2.45;;;21.80;31.20;;;;;;5076085;28;20433;-63
2022/01/12 10:49:55;;;;;;;3.20;2.75;;;21.80;30.90;;;;;;5094941;28;20444;-63
2022/01/12 10:52:23;;;;;;;3.03;2.72;;;21.80;30.90;;;;;;5076560;28;20498;-63
2022/01/12 10:54:48;;;;;;;3.40;2.70;;;21.70;30.90;;;;;;5094656;28;20917;-63
2022/01/12 10:57:21;;;;;;;3.03;2.63;;;21.80;30.80;;;;;;5094657;28;20414;-63
2022/01/12 11:00:22;;;;;;;2.85;2.50;;;21.80;30.70;;;;;;5094712;28;20852;-62
2022/01/12 11:02:50;;;;;;;3.28;2.70;;;21.80;30.60;;;;;;5094509;28;20398;-63
2022/01/12 11:05:17;;;;;;;4.37;2.87;;;21.80;30.10;;;;;;5094630;28;20407;-63
2022/01/12 11:07:43;;;;;;;3.13;2.63;;;21.80;30.10;;;;;;5094552;28;20386;-63
2022/01/12 11:10:10;;;;;;;3.03;2.67;;;21.90;30.10;;;;;;5094870;28;20387;-62
2022/01/12 11:12:38;;;;;;;3.10;2.60;;;21.90;30.00;;;;;;5094326;28;20444;-63
2022/01/12 11:15:15;;;;;;;2.75;2.40;;;21.90;30.00;;;;;;5094367;28;20374;-65
2022/01/12 11:17:42;;;;;;;3.83;2.53;;;22.00;30.00;;;;;;5094387;28;20417;-66
2022/01/12 11:20:19;;;;;;;3.53;2.60;;;22.00;29.80;;;;;;5094079;28;20435;-63
2022/01/12 11:23:00;;;;;;;3.10;2.55;;;22.10;29.80;;;;;;5094279;28;20390;-65
2022/01/12 11:25:32;;;;;;;3.33;2.70;;;22.10;29.70;;;;;;5094504;28;20378;-63
2022/01/12 11:28:05;;;;;;;3.90;2.70;;;22.20;29.50;;;;;;5076098;28;20394;-63
2022/01/12 11:30:33;;;;;;;3.60;3.00;;;22.20;29.50;;;;;;5093662;28;20390;-71
2022/01/12 11:33:04;;;;;;;3.40;2.75;;;22.20;29.40;;;;;;5094121;28;20386;-68
2022/01/12 11:35:36;;;;;;;3.50;2.63;;;22.30;29.40;;;;;;5094008;28;20390;-63
2022/01/12 11:38:04;;;;;;;3.42;2.72;;;22.20;29.40;;;;;;5094210;28;20423;-63
2022/01/12 11:40:37;;;;;;;3.65;2.58;;;22.30;29.40;;;;;;5093961;28;20409;-62
2022/01/12 11:43:03;;;;;;;3.70;3.10;;;22.30;29.30;;;;;;5093704;28;20414;-63
2022/01/12 11:45:29;;;;;;;2.80;2.33;;;22.30;29.30;;;;;;5093725;28;20465;-62
2022/01/12 11:47:54;;;;;;;3.77;2.60;;;22.30;29.20;;;;;;5093684;28;20489;-63
2022/01/12 11:50:20;;;;;;;3.28;2.90;;;22.40;29.20;;;;;;5093599;28;20390;-65
2022/01/12 11:52:46;;;;;;;3.10;2.70;;;22.40;29.20;;;;;;5093729;28;20409;-63
2022/01/12 11:55:17;;;;;;;3.38;2.70;;;22.40;29.20;;;;;;5093705;28;20370;-71
2022/01/12 11:57:52;;;;;;;3.45;2.70;;;22.40;29.20;;;;;;5075325;28;20425;-66
2022/01/12 12:00:23;;;;;;;3.30;2.87;;;22.40;29.10;;;;;;5093470;28;20501;-66
2022/01/12 12:02:51;;;;;;;3.45;2.70;;;22.40;29.10;;;;;;5093575;28;20428;-63
2022/01/12 12:05:29;;;;;;;3.28;2.85;;;22.40;29.10;;;;;;5093379;28;20406;-63
2022/01/12 12:08:02;;;;;;;3.00;2.40;;;22.50;29.00;;;;;;5093400;28;20871;-62
2022/01/12 12:10:29;;;;;;;3.78;2.60;;;22.40;29.10;;;;;;5093287;28;20913;-71
2022/01/12 12:12:58;;;;;;;3.60;2.73;;;22.50;29.10;;;;;;5093175;28;20433;-64
2022/01/12 12:15:25;;;;;;;3.28;2.60;;;22.50;29.10;;;;;;5075049;28;20392;-63
2022/01/12 12:17:52;;;;;;;2.93;2.57;;;22.50;29.50;;;;;;5093502;28;20809;-62
2022/01/12 12:20:21;;;;;;;3.47;2.72;;;22.50;29.10;;;;;;5093069;28;20382;-63
2022/01/12 12:22:48;;;;;;;3.47;2.63;;;22.50;29.40;;;;;;5093167;28;20904;-62
2022/01/12 12:25:19;;;;;;;3.55;2.60;;;22.50;29.40;;;;;;5093405;28;20511;-62
2022/01/12 12:28:02;;;;;;;3.72;2.88;;;22.50;29.60;;;;;;5092972;28;20386;-62
2022/01/12 12:30:31;;;;;;;10.25;3.95;;;22.50;29.70;;;;;;5092792;28;20378;-63
2022/01/12 12:33:06;;;;;;;16.52;5.68;;;22.50;29.90;;;;;;5093104;28;20390;-62
2022/01/12 12:35:33;;;;;;;14.20;5.22;;;22.40;30.20;;;;;;5092649;28;20373;-63
2022/01/12 12:38:04;;;;;;;10.80;4.15;;;22.40;30.00;;;;;;5092817;28;20414;-64
2022/01/12 12:40:42;;;;;;;16.63;4.38;;;22.50;30.10;;;;;;5092595;28;20422;-65
2022/01/12 12:43:25;;;;;;;10.20;4.32;;;22.50;30.10;;;;;;5092095;28;20802;-71
2022/01/12 12:45:54;;;;;;;10.95;4.20;;;22.50;30.00;;;;;;5092729;28;20771;-62
2022/01/12 12:48:22;;;;;;;11.18;3.72;;;22.50;30.00;;;;;;5092332;28;20406;-63
2022/01/12 12:50:58;;;;;;;9.55;3.85;;;22.50;30.00;;;;;;5092537;28;20464;-62
2022/01/12 12:53:36;;;;;;;10.57;3.72;;;22.50;30.00;;;;;;5092677;28;20390;-62
2022/01/12 12:56:04;;;;;;;7.90;3.42;;;22.50;29.90;;;;;;5092442;28;20378;-62
2022/01/12 12:58:30;;;;;;;8.32;3.53;;;22.50;29.90;;;;;;5092340;28;20410;-64
2022/01/12 13:01:09;;;;;;;6.80;3.70;;;22.50;29.90;;;;;;5092300;28;20378;-64
2022/01/12 13:03:36;;;;;;;7.50;3.22;;;22.50;30.00;;;;;;5092261;28;20394;-65
2022/01/12 13:06:02;;;;;;;7.60;3.30;;;22.50;29.90;;;;;;5092439;28;20420;-69
2022/01/12 13:08:28;;;;;;;6.80;3.20;;;22.50;29.90;;;;;;5092241;28;20386;-62
2022/01/12 13:10:54;;;;;;;7.73;3.33;;;22.50;29.90;;;;;;5091840;28;20401;-62
2022/01/12 13:13:19;;;;;;;6.65;3.17;;;22.50;29.90;;;;;;5091992;28;20405;-62
2022/01/12 13:15:46;;;;;;;5.77;2.90;;;22.50;29.90;;;;;;5092215;28;20389;-62
2022/01/12 13:18:14;;;;;;;6.75;3.30;;;22.60;29.80;;;;;;5092154;28;20409;-62
2022/01/12 13:23:36;;;;;;;4.70;2.87;;;22.60;29.80;;;;;;5092024;28;20428;-62
2022/01/12 13:26:04;;;;;;;5.70;2.80;;;22.50;29.80;;;;;;5074035;28;20439;-62
2022/01/12 13:28:30;;;;;;;4.20;2.78;;;22.50;29.80;;;;;;5073791;28;20393;-62
2022/01/12 13:30:59;;;;;;;5.47;2.90;;;22.50;29.80;;;;;;5091906;28;20402;-62
2022/01/12 13:33:30;;;;;;;6.05;2.70;;;22.60;29.80;;;;;;5091946;28;20389;-62
2022/01/12 13:35:58;;;;;;;4.82;2.70;;;22.50;29.70;;;;;;5091961;28;20386;-62
2022/01/12 13:38:30;;;;;;;4.32;2.58;;;22.50;29.70;;;;;;5091444;28;20903;-70
2022/01/12 13:41:05;;;;;;;3.63;2.45;;;22.50;29.70;;;;;;5073716;28;20395;-62
2022/01/12 13:43:30;;;;;;;4.40;2.70;;;22.50;29.70;;;;;;5091700;28;20405;-62
2022/01/12 13:46:12;;;;;;;4.73;2.60;;;22.50;29.80;;;;;;5073587;28;20447;-68
2022/01/12 13:48:41;;;;;;;4.40;2.63;;;22.50;29.70;;;;;;5091597;28;20409;-69
2022/01/12 13:51:07;;;;;;;4.47;2.55;;;22.50;29.70;;;;;;5091298;28;20407;-62
2022/01/12 13:53:39;;;;;;;4.50;2.50;;;22.50;29.80;;;;;;5109043;28;20607;-64
2022/01/12 13:56:06;;;;;;;4.15;2.70;;;22.50;29.80;;;;;;5095829;28;20747;-62
2022/01/12 13:58:35;;;;;;;4.13;2.53;;;22.50;29.70;;;;;;5077385;28;20420;-62
2022/01/12 14:01:05;;;;;;;3.80;2.50;;;22.50;29.70;;;;;;5095316;28;20579;-68
2022/01/12 14:03:38;;;;;;;3.38;2.30;;;22.40;29.70;;;;;;5092348;28;20411;-62
2022/01/12 14:06:13;;;;;;;3.97;2.50;;;22.50;29.80;;;;;;5095297;28;20390;-62
2022/01/12 14:08:53;;;;;;;3.63;2.45;;;22.40;29.70;;;;;;5095601;28;20389;-63
2022/01/12 14:11:20;;;;;;;4.05;2.70;;;22.40;29.80;;;;;;5095805;28;20423;-62
2022/01/12 14:13:45;;;;;;;3.47;2.65;;;22.40;29.80;;;;;;5095336;28;20400;-63
2022/01/12 14:16:12;;;;;;;3.33;2.47;;;22.40;29.70;;;;;;5095197;28;20389;-63
2022/01/12 14:18:39;;;;;;;3.57;2.50;;;22.40;29.80;;;;;;5095186;28;20575;-63
2022/01/12 14:21:20;;;;;;;4.30;2.60;;;22.40;29.70;;;;;;5095366;28;20378;-62